Time;durP1;ratioP1;P1;durP2;ratioP2;P2;SDS_P1;SDS_P2;PMS_P1;PMS_P2;Temp;Humidity;BMP_temperature;BMP_pressure;BME280_temperature;BME280_humidity;BME280_pressure;Samples;Min_cycle;Max_cycle;Signal;HPM_P1;HPM_P2
2021/05/08 00:02:23;;;;;;;10.55;5.10;;;;;;;;;;5046856;28;20525;-37
2021/05/08 00:04:49;;;;;;;21.67;5.32;;;;;;;;;;5064162;28;20681;-37
2021/05/08 00:07:14;;;;;;;7.13;4.20;;;;;;;;;;5064370;28;20120;-37
2021/05/08 00:09:39;;;;;;;7.50;4.93;;;;;;;;;;5063860;28;20055;-37
2021/05/08 00:12:05;;;;;;;6.82;3.40;;;;;;;;;;5066887;28;20028;-37
2021/05/08 00:14:30;;;;;;;11.88;4.55;;;;;;;;;;5068927;28;20052;-37
2021/05/08 00:16:55;;;;;;;8.85;4.72;;;;;;;;;;5066446;28;20477;-37
2021/05/08 00:19:22;;;;;;;8.20;4.53;;;;;;;;;;5066836;28;20902;-36
2021/05/08 00:21:47;;;;;;;5.45;4.55;;;;;;;;;;5065988;28;20033;-37
2021/05/08 00:24:12;;;;;;;9.27;5.50;;;;;;;;;;5070082;28;20057;-37
2021/05/08 00:26:38;;;;;;;15.98;5.57;;;;;;;;;;5062057;28;20025;-37
2021/05/08 00:29:03;;;;;;;10.07;4.72;;;;;;;;;;5061404;28;20484;-36
2021/05/08 00:31:29;;;;;;;8.02;6.35;;;;;;;;;;5067332;28;20656;-37
2021/05/08 00:33:54;;;;;;;8.18;6.22;;;;;;;;;;5066999;28;20037;-36
2021/05/08 00:36:19;;;;;;;7.97;5.80;;;;;;;;;;5069823;28;20523;-37
2021/05/08 00:38:45;;;;;;;8.15;5.05;;;;;;;;;;5064067;28;20556;-37
2021/05/08 00:41:10;;;;;;;11.90;6.03;;;;;;;;;;5068647;28;20041;-36
2021/05/08 00:43:35;;;;;;;12.65;4.95;;;;;;;;;;5063901;28;20500;-37
2021/05/08 00:46:01;;;;;;;5.80;3.75;;;;;;;;;;5064734;28;20036;-37
2021/05/08 00:48:30;;;;;;;11.88;5.10;;;;;;;;;;5061633;28;20040;-37
2021/05/08 00:50:56;;;;;;;6.68;5.07;;;;;;;;;;5065387;28;20036;-37
2021/05/08 00:53:22;;;;;;;9.48;4.70;;;;;;;;;;5062784;28;20060;-37
2021/05/08 00:55:47;;;;;;;6.95;5.97;;;;;;;;;;5064613;28;20059;-36
2021/05/08 00:58:12;;;;;;;7.85;5.75;;;;;;;;;;5067078;28;20081;-37
2021/05/08 01:00:38;;;;;;;11.10;5.32;;;;;;;;;;5061365;28;20440;-37
2021/05/08 01:03:04;;;;;;;5.10;4.40;;;;;;;;;;5066835;28;20033;-37
2021/05/08 01:05:32;;;;;;;13.60;4.28;;;;;;;;;;5071590;28;20036;-37
2021/05/08 01:07:58;;;;;;;12.80;6.05;;;;;;;;;;5060047;28;20029;-37
2021/05/08 01:10:24;;;;;;;13.52;3.67;;;;;;;;;;5061773;28;20029;-37
2021/05/08 01:12:50;;;;;;;14.77;4.28;;;;;;;;;;5061926;28;20032;-37
2021/05/08 01:15:15;;;;;;;11.88;4.82;;;;;;;;;;5063765;28;20033;-37
2021/05/08 01:17:41;;;;;;;7.47;4.32;;;;;;;;;;5061414;28;20052;-37
2021/05/08 01:20:12;;;;;;;7.78;5.47;;;;;;;;;;5063502;28;20029;-37
2021/05/08 01:22:43;;;;;;;12.15;5.22;;;;;;;;;;5060369;28;20037;-37
2021/05/08 01:25:08;;;;;;;;;;;;;;;;;;5064606;28;20041;-37
2021/05/08 01:27:34;;;;;;;7.32;4.55;;;;;;;;;;5066250;28;19920;-37
2021/05/08 01:30:05;;;;;;;4.90;4.32;;;;;;;;;;5055578;28;20497;-37
2021/05/08 01:32:33;;;;;;;6.60;4.85;;;;;;;;;;5062213;28;20048;-37
2021/05/08 01:34:59;;;;;;;4.93;4.25;;;;;;;;;;5018434;28;20021;-37
2021/05/08 01:37:24;;;;;;;17.38;6.00;;;;;;;;;;5071838;28;20481;-37
2021/05/08 01:39:49;;;;;;;12.05;5.25;;;;;;;;;;5069191;28;20024;-37
2021/05/08 01:42:15;;;;;;;12.43;5.28;;;;;;;;;;5060235;28;20545;-37
2021/05/08 01:44:42;;;;;;;8.45;4.32;;;;;;;;;;5056199;28;20039;-37
2021/05/08 01:47:08;;;;;;;12.82;5.45;;;;;;;;;;5068121;28;20104;-37
2021/05/08 01:49:33;;;;;;;7.75;3.50;;;;;;;;;;5062401;28;20443;-37
2021/05/08 01:51:58;;;;;;;9.45;5.00;;;;;;;;;;5060543;28;20040;-37
2021/05/08 01:54:24;;;;;;;8.63;4.10;;;;;;;;;;5061263;28;20511;-37
2021/05/08 01:56:49;;;;;;;5.80;3.72;;;;;;;;;;5064425;28;20033;-38
2021/05/08 01:59:14;;;;;;;10.60;4.85;;;;;;;;;;5064385;28;20443;-37
2021/05/08 02:01:40;;;;;;;8.05;5.38;;;;;;;;;;5061685;28;20017;-37
2021/05/08 02:04:07;;;;;;;9.63;4.88;;;;;;;;;;5062162;28;20040;-37
2021/05/08 02:06:33;;;;;;;5.60;3.53;;;;;;;;;;5062520;28;20029;-37
2021/05/08 02:08:58;;;;;;;10.02;3.85;;;;;;;;;;5063003;28;20056;-37
2021/05/08 02:11:24;;;;;;;10.23;4.93;;;;;;;;;;5067119;28;20040;-37
2021/05/08 02:13:49;;;;;;;5.07;4.38;;;;;;;;;;5067419;28;20124;-36
2021/05/08 02:16:14;;;;;;;5.28;4.43;;;;;;;;;;5063066;28;20042;-36
2021/05/08 02:18:40;;;;;;;13.80;5.38;;;;;;;;;;5061802;28;20115;-37
2021/05/08 02:21:07;;;;;;;12.07;4.80;;;;;;;;;;5057397;28;20393;-37
2021/05/08 02:23:32;;;;;;;5.65;4.05;;;;;;;;;;5060708;28;20080;-37
2021/05/08 02:25:57;;;;;;;6.82;4.50;;;;;;;;;;5063876;28;20527;-37
2021/05/08 02:28:23;;;;;;;8.02;5.18;;;;;;;;;;5063198;28;20039;-36
2021/05/08 02:30:48;;;;;;;5.60;4.40;;;;;;;;;;5060051;28;20547;-37
2021/05/08 02:33:13;;;;;;;7.13;4.28;;;;;;;;;;5059866;28;20047;-37
2021/05/08 02:35:39;;;;;;;5.40;4.03;;;;;;;;;;5061059;28;20028;-37
2021/05/08 02:38:05;;;;;;;10.55;4.68;;;;;;;;;;5064906;28;20045;-37
2021/05/08 02:40:32;;;;;;;12.25;6.20;;;;;;;;;;5061030;28;20032;-37
2021/05/08 02:42:57;;;;;;;8.30;4.97;;;;;;;;;;5049156;28;20069;-37
2021/05/08 02:45:23;;;;;;;13.25;5.60;;;;;;;;;;5061176;28;20064;-37
2021/05/08 02:47:49;;;;;;;7.80;5.45;;;;;;;;;;5062324;28;20038;-37
2021/05/08 02:50:15;;;;;;;5.68;5.10;;;;;;;;;;5060247;28;20032;-37
2021/05/08 02:52:41;;;;;;;5.38;4.47;;;;;;;;;;5063345;28;20043;-38
2021/05/08 02:55:06;;;;;;;6.60;4.03;;;;;;;;;;5067113;28;20036;-36
2021/05/08 02:57:32;;;;;;;7.30;4.65;;;;;;;;;;5065307;28;20103;-37
2021/05/08 02:59:57;;;;;;;7.78;5.72;;;;;;;;;;5068031;28;20143;-37
2021/05/08 03:02:22;;;;;;;10.75;5.38;;;;;;;;;;5068190;28;20033;-37
2021/05/08 03:04:48;;;;;;;11.48;4.97;;;;;;;;;;5061222;28;20039;-37
2021/05/08 03:07:13;;;;;;;9.63;6.40;;;;;;;;;;5066295;28;20480;-37
2021/05/08 03:09:38;;;;;;;7.88;6.28;;;;;;;;;;5067690;28;20028;-37
2021/05/08 03:12:04;;;;;;;5.50;4.95;;;;;;;;;;5063485;28;20017;-37
2021/05/08 03:14:30;;;;;;;10.68;5.13;;;;;;;;;;5063049;28;20576;-37
2021/05/08 03:16:57;;;;;;;7.47;4.40;;;;;;;;;;5070847;28;20115;-37
2021/05/08 03:19:22;;;;;;;9.60;5.22;;;;;;;;;;5067176;28;20023;-37
2021/05/08 03:21:47;;;;;;;5.75;5.20;;;;;;;;;;5069499;28;20600;-37
2021/05/08 03:24:13;;;;;;;10.82;5.00;;;;;;;;;;5062407;28;20114;-37
2021/05/08 03:26:38;;;;;;;9.10;5.18;;;;;;;;;;5061760;28;20484;-37
2021/05/08 03:29:04;;;;;;;12.73;4.57;;;;;;;;;;5063106;28;20461;-38
2021/05/08 03:31:29;;;;;;;13.07;5.10;;;;;;;;;;5062213;28;20033;-38
2021/05/08 03:33:54;;;;;;;6.85;4.88;;;;;;;;;;5060301;28;20370;-37
2021/05/08 03:36:20;;;;;;;8.00;5.88;;;;;;;;;;5060876;28;20536;-37
2021/05/08 03:38:45;;;;;;;14.15;5.00;;;;;;;;;;5066660;28;20128;-37
2021/05/08 03:41:10;;;;;;;4.80;4.30;;;;;;;;;;5067248;28;20024;-37
2021/05/08 03:43:36;;;;;;;6.40;4.22;;;;;;;;;;5064150;28;20045;-37
2021/05/08 03:46:01;;;;;;;15.57;4.47;;;;;;;;;;5065712;28;20108;-36
2021/05/08 03:48:27;;;;;;;6.75;3.60;;;;;;;;;;5068464;28;20417;-37
2021/05/08 03:50:52;;;;;;;5.93;2.50;;;;;;;;;;5067232;28;20041;-36
2021/05/08 03:53:19;;;;;;;9.75;5.15;;;;;;;;;;5054366;28;20452;-37
2021/05/08 03:55:44;;;;;;;4.78;2.58;;;;;;;;;;5070805;28;20065;-37
2021/05/08 03:58:09;;;;;;;3.33;2.70;;;;;;;;;;5068648;28;20033;-37
2021/05/08 04:00:35;;;;;;;7.50;3.67;;;;;;;;;;5064357;28;20107;-37
2021/05/08 04:03:00;;;;;;;6.47;2.50;;;;;;;;;;5067203;28;20460;-37
2021/05/08 04:05:26;;;;;;;5.07;3.50;;;;;;;;;;5064460;28;20667;-37
2021/05/08 04:07:51;;;;;;;13.07;4.05;;;;;;;;;;5061182;28;20048;-37
2021/05/08 04:10:17;;;;;;;12.02;4.75;;;;;;;;;;5066982;28;20040;-37
2021/05/08 04:12:43;;;;;;;4.47;3.63;;;;;;;;;;5068168;28;20078;-37
2021/05/08 04:15:08;;;;;;;6.97;3.70;;;;;;;;;;5069165;28;20040;-37
2021/05/08 04:17:33;;;;;;;7.70;3.45;;;;;;;;;;5071865;28;20080;-37
2021/05/08 04:19:59;;;;;;;5.03;1.75;;;;;;;;;;5075301;28;20028;-37
2021/05/08 04:22:24;;;;;;;2.05;1.08;;;;;;;;;;5076687;28;20436;-37
2021/05/08 04:24:49;;;;;;;6.50;4.40;;;;;;;;;;5067243;28;20500;-36
2021/05/08 04:27:15;;;;;;;5.05;2.97;;;;;;;;;;5070487;28;20037;-36
2021/05/08 04:29:40;;;;;;;5.50;2.20;;;;;;;;;;5067227;28;20032;-36
2021/05/08 04:32:05;;;;;;;11.40;0.98;;;;;;;;;;5063748;28;20093;-36
2021/05/08 04:34:30;;;;;;;3.30;1.02;;;;;;;;;;5065428;28;20029;-36
2021/05/08 04:36:56;;;;;;;1.92;1.00;;;;;;;;;;5067761;28;20090;-36
2021/05/08 04:39:22;;;;;;;1.15;1.00;;;;;;;;;;5063680;28;20035;-37
2021/05/08 04:41:47;;;;;;;1.45;1.02;;;;;;;;;;5065405;28;20461;-37
2021/05/08 04:44:12;;;;;;;1.60;1.08;;;;;;;;;;5064041;28;20159;-36
2021/05/08 04:46:37;;;;;;;3.47;1.45;;;;;;;;;;5061725;28;20033;-37
2021/05/08 04:49:03;;;;;;;3.53;1.38;;;;;;;;;;5061535;28;20115;-37
2021/05/08 04:51:28;;;;;;;3.63;2.88;;;;;;;;;;5061392;28;20499;-36
2021/05/08 04:53:54;;;;;;;5.72;3.72;;;;;;;;;;5065572;28;20058;-36
2021/05/08 04:56:19;;;;;;;9.75;5.18;;;;;;;;;;5067030;28;20269;-37
2021/05/08 04:58:44;;;;;;;4.60;3.72;;;;;;;;;;5065219;28;20028;-37
2021/05/08 05:01:10;;;;;;;14.43;5.85;;;;;;;;;;5063983;28;20489;-36
2021/05/08 05:03:36;;;;;;;7.78;4.03;;;;;;;;;;5065283;28;20426;-37
2021/05/08 05:06:01;;;;;;;6.53;4.03;;;;;;;;;;5053549;28;20484;-36
2021/05/08 05:08:27;;;;;;;7.20;3.70;;;;;;;;;;5067476;28;20158;-37
2021/05/08 05:10:52;;;;;;;5.63;4.95;;;;;;;;;;5062966;28;20072;-37
2021/05/08 05:13:22;;;;;;;7.85;7.07;;;;;;;;;;5061541;28;20041;-37
2021/05/08 05:15:47;;;;;;;8.57;4.72;;;;;;;;;;5069075;28;20033;-37
2021/05/08 05:18:12;;;;;;;9.98;4.43;;;;;;;;;;5069069;28;20056;-37
2021/05/08 05:20:39;;;;;;;8.57;4.05;;;;;;;;;;5052580;28;20037;-37
2021/05/08 05:23:04;;;;;;;6.35;4.93;;;;;;;;;;5062624;28;20457;-37
2021/05/08 05:25:29;;;;;;;7.78;4.05;;;;;;;;;;5061965;28;20056;-37
2021/05/08 05:27:54;;;;;;;5.88;3.38;;;;;;;;;;5059832;28;20037;-37
2021/05/08 05:30:21;;;;;;;5.43;2.70;;;;;;;;;;5062964;28;20077;-37
2021/05/08 05:32:46;;;;;;;5.38;3.30;;;;;;;;;;5068191;28;20504;-37
2021/05/08 05:35:12;;;;;;;7.40;4.82;;;;;;;;;;5066386;28;20028;-40
2021/05/08 05:37:37;;;;;;;6.10;3.15;;;;;;;;;;5062898;28;20033;-37
2021/05/08 05:40:03;;;;;;;5.20;3.90;;;;;;;;;;5061770;28;20040;-37
2021/05/08 05:42:28;;;;;;;18.00;4.68;;;;;;;;;;5065098;28;20029;-37
2021/05/08 05:44:53;;;;;;;7.85;5.20;;;;;;;;;;5064933;28;20116;-37
2021/05/08 05:47:22;;;;;;;17.70;4.70;;;;;;;;;;5067291;28;20473;-37
2021/05/08 05:49:48;;;;;;;8.95;8.15;;;;;;;;;;5068938;28;20036;-35
2021/05/08 05:52:13;;;;;;;4.22;3.55;;;;;;;;;;5065963;28;20146;-35
2021/05/08 05:54:41;;;;;;;6.50;5.20;;;;;;;;;;5062231;28;20030;-35
2021/05/08 05:57:06;;;;;;;3.65;2.67;;;;;;;;;;5060904;28;20029;-35
2021/05/08 05:59:31;;;;;;;6.55;3.85;;;;;;;;;;5065611;28;20025;-35
2021/05/08 06:01:57;;;;;;;3.38;3.08;;;;;;;;;;5059767;28;20538;-35
2021/05/08 06:04:22;;;;;;;7.15;3.50;;;;;;;;;;5064410;28;20038;-35
2021/05/08 06:06:47;;;;;;;6.47;3.15;;;;;;;;;;5065190;28;20128;-34
2021/05/08 06:09:13;;;;;;;7.90;3.15;;;;;;;;;;5063344;28;20037;-34
2021/05/08 06:11:38;;;;;;;3.33;2.70;;;;;;;;;;5062292;28;20480;-34
2021/05/08 06:14:03;;;;;;;10.38;3.65;;;;;;;;;;5062013;28;20117;-34
2021/05/08 06:16:28;;;;;;;3.65;2.97;;;;;;;;;;5068561;28;20049;-34
2021/05/08 06:18:54;;;;;;;8.32;4.50;;;;;;;;;;5069951;28;20029;-34
2021/05/08 06:21:19;;;;;;;9.02;2.83;;;;;;;;;;5062928;28;20119;-34
2021/05/08 06:23:44;;;;;;;6.70;3.90;;;;;;;;;;5062660;28;20148;-33
2021/05/08 06:26:09;;;;;;;5.63;3.65;;;;;;;;;;5067079;28;20052;-34
2021/05/08 06:28:35;;;;;;;13.80;2.80;;;;;;;;;;5067940;28;20078;-34
2021/05/08 06:31:00;;;;;;;6.35;3.53;;;;;;;;;;5069594;28;20031;-35
2021/05/08 06:33:25;;;;;;;8.02;3.80;;;;;;;;;;5063946;28;20040;-35
2021/05/08 06:35:51;;;;;;;8.65;4.50;;;;;;;;;;5066427;28;20029;-35
2021/05/08 06:38:16;;;;;;;6.25;4.35;;;;;;;;;;5061389;28;20048;-35
2021/05/08 06:40:41;;;;;;;14.98;5.72;;;;;;;;;;5061838;28;20023;-35
2021/05/08 06:43:07;;;;;;;11.82;5.82;;;;;;;;;;5058168;28;20050;-35
2021/05/08 06:45:32;;;;;;;9.05;4.85;;;;;;;;;;5063523;28;20098;-35
2021/05/08 06:48:00;;;;;;;5.75;4.18;;;;;;;;;;5060261;28;20182;-35
2021/05/08 06:50:26;;;;;;;9.40;7.78;;;;;;;;;;5054974;28;20086;-35
2021/05/08 06:52:51;;;;;;;9.75;6.65;;;;;;;;;;5069708;28;20043;-35
2021/05/08 06:55:17;;;;;;;6.20;4.85;;;;;;;;;;5061821;28;20174;-35
2021/05/08 06:57:42;;;;;;;4.53;3.75;;;;;;;;;;5065452;28;20068;-35
2021/05/08 07:00:08;;;;;;;12.45;4.57;;;;;;;;;;5068797;28;20032;-35
2021/05/08 07:02:33;;;;;;;21.52;5.30;;;;;;;;;;5072637;28;20076;-36
2021/05/08 07:04:58;;;;;;;10.77;6.88;;;;;;;;;;5061846;28;20064;-35
2021/05/08 07:07:23;;;;;;;15.70;11.43;;;;;;;;;;5059800;28;20082;-36
2021/05/08 07:09:49;;;;;;;15.55;10.48;;;;;;;;;;5060459;28;20055;-35
2021/05/08 07:12:14;;;;;;;15.23;8.73;;;;;;;;;;5057266;28;20044;-34
2021/05/08 07:14:41;;;;;;;19.83;15.13;;;;;;;;;;5058444;28;20131;-34
2021/05/08 07:17:06;;;;;;;17.98;13.57;;;;;;;;;;5059834;28;20056;-35
2021/05/08 07:19:31;;;;;;;20.05;10.90;;;;;;;;;;5060189;28;20055;-35
2021/05/08 07:21:58;;;;;;;12.02;10.20;;;;;;;;;;5057660;28;20170;-35
2021/05/08 07:24:24;;;;;;;24.00;19.30;;;;;;;;;;5062311;28;20075;-35
2021/05/08 07:26:49;;;;;;;14.32;10.18;;;;;;;;;;5057116;28;20041;-35
2021/05/08 07:29:16;;;;;;;5.30;3.85;;;;;;;;;;5058826;28;20035;-35
2021/05/08 07:31:41;;;;;;;12.30;3.58;;;;;;;;;;5062210;28;20063;-35
2021/05/08 07:34:06;;;;;;;9.73;5.00;;;;;;;;;;5064106;28;20040;-34
2021/05/08 07:36:32;;;;;;;6.40;4.70;;;;;;;;;;5062041;28;20033;-35
2021/05/08 07:38:57;;;;;;;4.15;3.75;;;;;;;;;;5063591;28;20044;-35
2021/05/08 07:41:23;;;;;;;7.35;5.32;;;;;;;;;;5060448;28;20485;-35
2021/05/08 07:43:48;;;;;;;8.80;4.65;;;;;;;;;;5059671;28;20086;-35
2021/05/08 07:46:13;;;;;;;7.07;4.40;;;;;;;;;;5058228;28;20644;-38
2021/05/08 07:48:38;;;;;;;11.35;5.40;;;;;;;;;;5059337;28;20039;-35
2021/05/08 07:51:04;;;;;;;4.13;3.20;;;;;;;;;;5065122;28;20033;-35
2021/05/08 07:53:30;;;;;;;3.78;2.97;;;;;;;;;;5060507;28;20095;-35
2021/05/08 07:55:55;;;;;;;4.93;3.75;;;;;;;;;;5062571;28;20043;-37
2021/05/08 07:58:21;;;;;;;16.10;4.00;;;;;;;;;;5057645;28;20060;-37
2021/05/08 08:00:46;;;;;;;4.63;4.07;;;;;;;;;;5063077;28;20034;-36
2021/05/08 08:03:12;;;;;;;11.02;3.22;;;;;;;;;;5066748;28;20394;-37
2021/05/08 08:05:37;;;;;;;5.10;2.90;;;;;;;;;;5061510;28;20375;-36
2021/05/08 08:08:02;;;;;;;6.45;3.53;;;;;;;;;;5059496;28;20048;-36
2021/05/08 08:10:28;;;;;;;6.93;3.95;;;;;;;;;;5061355;28;20085;-36
2021/05/08 08:12:53;;;;;;;3.08;2.42;;;;;;;;;;5061010;28;20084;-37
2021/05/08 08:15:19;;;;;;;8.52;3.75;;;;;;;;;;5059588;28;20040;-36
2021/05/08 08:17:45;;;;;;;8.50;2.28;;;;;;;;;;5054754;28;20041;-36
2021/05/08 08:20:11;;;;;;;8.65;5.40;;;;;;;;;;5057441;28;20028;-36
2021/05/08 08:22:37;;;;;;;3.90;2.25;;;;;;;;;;5064796;28;20226;-36
2021/05/08 08:25:03;;;;;;;18.65;4.63;;;;;;;;;;5048382;28;20513;-37
2021/05/08 08:27:29;;;;;;;6.60;3.88;;;;;;;;;;5044220;28;20481;-36
2021/05/08 08:29:54;;;;;;;3.50;2.28;;;;;;;;;;5044432;28;20040;-36
2021/05/08 08:32:19;;;;;;;6.50;3.92;;;;;;;;;;5044636;28;20037;-37
2021/05/08 08:34:45;;;;;;;6.05;2.33;;;;;;;;;;5046194;28;20060;-35
2021/05/08 08:37:10;;;;;;;14.13;3.40;;;;;;;;;;5043705;28;20064;-36
2021/05/08 08:39:35;;;;;;;4.32;2.80;;;;;;;;;;5045311;28;20036;-35
2021/05/08 08:42:01;;;;;;;8.20;4.15;;;;;;;;;;5044146;28;20517;-37
2021/05/08 08:44:27;;;;;;;6.20;2.70;;;;;;;;;;5044379;28;20087;-38
2021/05/08 08:46:53;;;;;;;7.35;4.10;;;;;;;;;;5041648;28;20067;-36
2021/05/08 08:49:18;;;;;;;5.82;2.70;;;;;;;;;;5036568;28;20037;-38
2021/05/08 08:51:44;;;;;;;4.30;2.10;;;;;;;;;;5037723;28;20036;-35
2021/05/08 08:54:10;;;;;;;5.43;2.78;;;;;;;;;;5046870;28;20049;-37
2021/05/08 08:56:40;;;;;;;2.25;1.90;;;;;;;;;;5051341;28;20060;-35
2021/05/08 08:59:13;;;;;;;4.83;2.27;;;;;;;;;;5057002;28;20103;-33
2021/05/08 09:01:38;;;;;;;4.55;2.15;;;;;;;;;;5045773;28;20034;-35
2021/05/08 09:04:03;;;;;;;3.55;1.75;;;;;;;;;;5042788;28;20044;-36
2021/05/08 09:06:29;;;;;;;3.40;2.35;;;;;;;;;;5040698;28;20500;-37
2021/05/08 09:08:56;;;;;;;6.38;2.33;;;;;;;;;;5044653;28;20071;-35
2021/05/08 09:11:25;;;;;;;4.20;2.13;;;;;;;;;;5039431;28;20032;-36
2021/05/08 09:14:11;;;;;;;5.78;3.45;;;;;;;;;;5044211;28;20438;-36
2021/05/08 09:16:36;;;;;;;13.43;5.22;;;;;;;;;;5034719;28;20029;-35
2021/05/08 09:19:17;;;;;;;8.07;3.72;;;;;;;;;;5039805;28;20037;-36
2021/05/08 09:21:43;;;;;;;3.65;1.92;;;;;;;;;;5036857;28;20044;-36
2021/05/08 09:24:08;;;;;;;14.23;5.68;;;;;;;;;;5056173;28;20733;-36
2021/05/08 09:26:37;;;;;;;6.63;3.45;;;;;;;;;;5058828;28;20469;-36
2021/05/08 09:29:06;;;;;;;10.40;4.30;;;;;;;;;;5061946;28;20611;-36
2021/05/08 09:31:31;;;;;;;42.15;14.60;;;;;;;;;;5058698;28;20078;-35
2021/05/08 09:33:59;;;;;;;14.05;4.35;;;;;;;;;;5057623;28;20036;-36
2021/05/08 09:36:27;;;;;;;5.65;3.03;;;;;;;;;;5057757;28;20535;-35
2021/05/08 09:38:55;;;;;;;8.18;3.05;;;;;;;;;;5058464;28;20067;-35
2021/05/08 09:41:42;;;;;;;5.38;3.97;;;;;;;;;;5060788;28;20036;-37
2021/05/08 09:44:14;;;;;;;19.85;5.18;;;;;;;;;;5062431;28;20041;-36
2021/05/08 09:46:39;;;;;;;6.13;3.97;;;;;;;;;;5059269;28;20024;-36
2021/05/08 09:49:10;;;;;;;11.23;3.35;;;;;;;;;;5059465;28;20047;-35
2021/05/08 09:51:36;;;;;;;4.57;1.92;;;;;;;;;;5060156;28;20059;-35
2021/05/08 09:54:17;;;;;;;4.93;2.38;;;;;;;;;;5060335;28;20040;-36
2021/05/08 09:56:48;;;;;;;6.90;4.55;;;;;;;;;;5063321;28;20395;-36
2021/05/08 09:59:20;;;;;;;4.05;3.03;;;;;;;;;;5059755;28;20050;-35
2021/05/08 10:01:47;;;;;;;8.30;4.00;;;;;;;;;;5057082;28;20025;-35
2021/05/08 10:04:33;;;;;;;17.48;2.90;;;;;;;;;;5060049;28;20094;-36
2021/05/08 10:07:08;;;;;;;7.03;3.65;;;;;;;;;;5048531;28;20497;-36
2021/05/08 10:09:39;;;;;;;4.53;2.63;;;;;;;;;;5059172;28;20193;-35
2021/05/08 10:12:18;;;;;;;10.20;3.28;;;;;;;;;;5061371;28;20085;-35
2021/05/08 10:14:50;;;;;;;7.63;2.85;;;;;;;;;;5060552;28;20222;-36
2021/05/08 10:17:17;;;;;;;8.25;3.22;;;;;;;;;;5060533;28;20087;-35
2021/05/08 10:19:47;;;;;;;2.55;1.35;;;;;;;;;;5060736;28;20072;-36
2021/05/08 10:22:16;;;;;;;7.05;2.95;;;;;;;;;;5058416;28;20044;-35
2021/05/08 10:24:42;;;;;;;2.65;1.60;;;;;;;;;;5054399;28;20052;-35
2021/05/08 10:27:13;;;;;;;6.60;2.80;;;;;;;;;;5056862;28;20551;-35
2021/05/08 10:29:38;;;;;;;;;;;;;;;;;;5061588;28;20713;-35
2021/05/08 10:32:05;;;;;;;28.88;6.10;;;;;;;;;;5061534;28;19908;-35
2021/05/08 10:34:34;;;;;;;3.33;2.10;;;;;;;;;;5062080;28;20036;-35
2021/05/08 10:37:05;;;;;;;4.85;1.60;;;;;;;;;;5059397;28;20037;-35
2021/05/08 10:39:49;;;;;;;3.80;1.85;;;;;;;;;;5065767;28;20109;-37
2021/05/08 10:42:47;;;;;;;16.75;4.70;;;;;;;;;;5057476;28;20056;-35
2021/05/08 10:45:15;;;;;;;3.38;1.50;;;;;;;;;;5020223;28;20079;-36
2021/05/08 10:47:58;;;;;;;3.28;2.97;;;;;;;;;;5058165;28;20043;-35
2021/05/08 10:50:24;;;;;;;6.10;4.22;;;;;;;;;;5059385;28;20427;-35
2021/05/08 10:53:01;;;;;;;8.30;3.80;;;;;;;;;;5056258;28;20048;-36
2021/05/08 10:55:30;;;;;;;6.03;3.17;;;;;;;;;;5059655;28;20504;-36
2021/05/08 10:58:14;;;;;;;7.47;2.55;;;;;;;;;;5060540;28;20065;-37
2021/05/08 11:00:52;;;;;;;6.45;2.55;;;;;;;;;;5059579;28;20029;-36
2021/05/08 11:03:27;;;;;;;8.48;1.65;;;;;;;;;;5056863;28;20488;-38
2021/05/08 11:05:54;;;;;;;2.92;1.98;;;;;;;;;;5059512;28;20122;-36
2021/05/08 11:08:25;;;;;;;6.97;2.97;;;;;;;;;;5062318;28;20115;-36
2021/05/08 11:10:58;;;;;;;16.80;3.90;;;;;;;;;;5055164;28;20040;-36
2021/05/08 11:13:26;;;;;;;6.75;3.20;;;;;;;;;;5054399;28;20098;-36
2021/05/08 11:15:55;;;;;;;9.52;2.88;;;;;;;;;;5061442;28;20029;-36
2021/05/08 11:18:44;;;;;;;3.33;2.15;;;;;;;;;;5061053;28;20515;-36
2021/05/08 11:21:18;;;;;;;3.42;1.48;;;;;;;;;;5041756;28;20061;-37
2021/05/08 11:23:54;;;;;;;12.20;4.05;;;;;;;;;;5058710;28;20071;-37
2021/05/08 11:26:23;;;;;;;5.90;2.58;;;;;;;;;;5056504;28;20055;-36
2021/05/08 11:28:58;;;;;;;2.00;1.17;;;;;;;;;;5054697;28;20082;-36
2021/05/08 11:31:23;;;;;;;2.30;1.42;;;;;;;;;;5059306;28;20037;-36
2021/05/08 11:33:51;;;;;;;5.82;1.92;;;;;;;;;;5060667;28;20082;-36
2021/05/08 11:36:20;;;;;;;10.32;2.63;;;;;;;;;;5062358;28;20028;-36
2021/05/08 11:38:45;;;;;;;5.75;2.67;;;;;;;;;;5061629;28;20043;-37
2021/05/08 11:41:39;;;;;;;4.47;2.55;;;;;;;;;;5063347;28;20033;-37
2021/05/08 11:44:05;;;;;;;1.95;1.13;;;;;;;;;;5070153;28;20488;-37
2021/05/08 11:46:33;;;;;;;6.65;2.30;;;;;;;;;;5063419;28;20036;-37
2021/05/08 11:48:58;;;;;;;10.20;3.38;;;;;;;;;;5062871;28;20036;-36
2021/05/08 11:51:23;;;;;;;9.02;3.22;;;;;;;;;;5062586;28;20033;-37
2021/05/08 11:54:05;;;;;;;13.00;3.35;;;;;;;;;;5059682;28;20147;-38
2021/05/08 11:56:33;;;;;;;6.07;2.45;;;;;;;;;;5059355;28;20029;-37
2021/05/08 11:59:00;;;;;;;5.47;2.30;;;;;;;;;;5059983;28;20090;-34
2021/05/08 12:01:36;;;;;;;9.57;2.20;;;;;;;;;;5062204;28;20085;-37
2021/05/08 12:04:02;;;;;;;6.50;3.00;;;;;;;;;;5059903;28;20032;-36
2021/05/08 12:06:28;;;;;;;9.60;2.83;;;;;;;;;;5063684;28;20050;-36
2021/05/08 12:08:59;;;;;;;18.95;4.20;;;;;;;;;;5062124;28;20568;-36
2021/05/08 12:11:24;;;;;;;8.88;3.47;;;;;;;;;;5062790;28;20033;-37
2021/05/08 12:13:53;;;;;;;4.82;3.40;;;;;;;;;;5064229;28;20037;-36
2021/05/08 12:16:18;;;;;;;2.80;2.00;;;;;;;;;;5063324;28;20021;-37
2021/05/08 12:18:44;;;;;;;2.85;2.30;;;;;;;;;;5064755;28;20040;-36
2021/05/08 12:21:13;;;;;;;2.85;1.80;;;;;;;;;;5066416;28;20426;-36
2021/05/08 12:23:39;;;;;;;7.85;3.47;;;;;;;;;;5064378;28;20054;-35
2021/05/08 12:26:07;;;;;;;7.93;3.13;;;;;;;;;;5062814;28;20037;-36
2021/05/08 12:28:33;;;;;;;4.63;2.58;;;;;;;;;;5064759;28;20047;-36
2021/05/08 12:31:17;;;;;;;10.32;5.40;;;;;;;;;;5060125;28;20585;-36
2021/05/08 12:33:42;;;;;;;8.13;4.45;;;;;;;;;;5061648;28;20063;-35
2021/05/08 12:36:12;;;;;;;19.90;5.47;;;;;;;;;;5066504;28;20566;-36
2021/05/08 12:38:37;;;;;;;8.95;3.58;;;;;;;;;;5069513;28;20039;-39
2021/05/08 12:41:21;;;;;;;12.52;5.40;;;;;;;;;;5061602;28;20032;-37
2021/05/08 12:43:48;;;;;;;4.85;2.58;;;;;;;;;;5060377;28;20556;-38
2021/05/08 12:46:14;;;;;;;4.05;1.88;;;;;;;;;;5061659;28;20051;-37
2021/05/08 12:48:40;;;;;;;3.80;2.40;;;;;;;;;;5061129;28;20520;-36
2021/05/08 12:51:24;;;;;;;5.25;3.05;;;;;;;;;;5058389;28;20043;-36
2021/05/08 12:54:09;;;;;;;4.93;2.33;;;;;;;;;;5061573;28;20084;-36
2021/05/08 12:56:34;;;;;;;2.33;1.35;;;;;;;;;;5063767;28;20563;-37
2021/05/08 12:59:00;;;;;;;11.02;4.07;;;;;;;;;;5064741;28;20040;-36
2021/05/08 13:01:26;;;;;;;3.63;2.35;;;;;;;;;;5064401;28;20029;-37
2021/05/08 13:03:51;;;;;;;11.25;1.20;;;;;;;;;;5064340;28;20043;-37
2021/05/08 13:06:23;;;;;;;2.05;1.67;;;;;;;;;;5061244;28;20109;-37
2021/05/08 13:08:50;;;;;;;4.82;3.47;;;;;;;;;;5059391;28;20047;-37
2021/05/08 13:11:37;;;;;;;4.97;3.05;;;;;;;;;;5052002;28;20032;-37
2021/05/08 13:14:18;;;;;;;4.28;1.90;;;;;;;;;;5064649;28;20477;-37
2021/05/08 13:16:44;;;;;;;5.57;3.40;;;;;;;;;;5063055;28;20384;-37
2021/05/08 13:19:10;;;;;;;10.07;1.45;;;;;;;;;;5060405;28;20033;-38
2021/05/08 13:21:35;;;;;;;2.40;1.73;;;;;;;;;;5060698;28;20516;-39
2021/05/08 13:24:01;;;;;;;3.08;1.65;;;;;;;;;;5061981;28;20048;-37
2021/05/08 13:26:26;;;;;;;4.95;3.10;;;;;;;;;;5062600;28;20691;-37
2021/05/08 13:28:51;;;;;;;6.15;3.97;;;;;;;;;;5061725;28;20822;-38
2021/05/08 13:31:17;;;;;;;5.40;2.90;;;;;;;;;;5062447;28;20063;-37
2021/05/08 13:33:42;;;;;;;2.90;2.03;;;;;;;;;;5059664;28;20037;-37
2021/05/08 13:36:07;;;;;;;5.22;1.83;;;;;;;;;;5062781;28;20136;-37
2021/05/08 13:38:33;;;;;;;12.18;2.85;;;;;;;;;;5063373;28;20147;-37
2021/05/08 13:40:58;;;;;;;6.60;1.92;;;;;;;;;;5060668;28;20536;-37
2021/05/08 13:43:23;;;;;;;4.05;2.65;;;;;;;;;;5062080;28;20148;-37
2021/05/08 13:45:48;;;;;;;4.75;3.00;;;;;;;;;;5066724;28;20138;-36
2021/05/08 13:48:14;;;;;;;1.85;1.63;;;;;;;;;;5066069;28;20064;-37
2021/05/08 13:50:39;;;;;;;2.65;1.80;;;;;;;;;;5067157;28;20078;-37
2021/05/08 13:53:04;;;;;;;5.13;2.25;;;;;;;;;;5066619;28;20044;-37
2021/05/08 13:55:30;;;;;;;2.75;1.90;;;;;;;;;;5061869;28;20032;-37
2021/05/08 13:57:55;;;;;;;6.25;2.33;;;;;;;;;;5060913;28;20373;-37
2021/05/08 14:00:20;;;;;;;3.33;2.67;;;;;;;;;;5067660;28;20028;-37
2021/05/08 14:02:46;;;;;;;11.43;2.45;;;;;;;;;;5060722;28;21057;-37
2021/05/08 14:05:11;;;;;;;5.03;2.00;;;;;;;;;;5058739;28;20074;-36
2021/05/08 14:07:37;;;;;;;13.20;2.72;;;;;;;;;;5062153;28;20643;-36
2021/05/08 14:10:02;;;;;;;2.35;1.75;;;;;;;;;;5060759;28;20029;-36
2021/05/08 14:12:28;;;;;;;3.03;1.75;;;;;;;;;;5066914;28;20046;-37
2021/05/08 14:14:53;;;;;;;10.40;4.40;;;;;;;;;;5063368;28;20710;-37
2021/05/08 14:17:18;;;;;;;5.15;2.28;;;;;;;;;;5059040;28;20443;-38
2021/05/08 14:19:44;;;;;;;5.93;4.40;;;;;;;;;;5059636;28;20525;-39
2021/05/08 14:22:09;;;;;;;8.73;4.20;;;;;;;;;;5061384;28;20048;-38
2021/05/08 14:24:34;;;;;;;2.30;1.80;;;;;;;;;;5061889;28;20429;-39
2021/05/08 14:27:00;;;;;;;10.65;3.53;;;;;;;;;;5061009;28;20133;-38
2021/05/08 14:29:25;;;;;;;6.15;3.15;;;;;;;;;;5056285;28;20028;-40
2021/05/08 14:31:50;;;;;;;2.55;2.15;;;;;;;;;;5058426;28;20036;-38
2021/05/08 14:34:15;;;;;;;4.22;3.10;;;;;;;;;;5056718;28;20472;-38
2021/05/08 14:36:41;;;;;;;4.05;2.60;;;;;;;;;;5059228;28;20071;-40
2021/05/08 14:39:06;;;;;;;4.20;2.47;;;;;;;;;;5060189;28;20123;-38
2021/05/08 14:41:31;;;;;;;2.63;1.52;;;;;;;;;;5060602;28;20032;-38